Time;durP1;ratioP1;P1;durP2;ratioP2;P2;SDS_P1;SDS_P2;PMS_P1;PMS_P2;Temp;Humidity;BMP_temperature;BMP_pressure;BME280_temperature;BME280_humidity;BME280_pressure;Samples;Min_cycle;Max_cycle;Signal;HPM_P1;HPM_P2
2022/05/11 00:00:30;;;;;;;20.52;7.05;;;;;;;;;;10081943;29;20068;-68
2022/05/11 00:05:40;;;;;;;17.17;7.43;;;;;;;;;;10115926;29;20108;-68
2022/05/11 00:10:44;;;;;;;16.00;8.07;;;;;;;;;;10091689;29;20053;-68
2022/05/11 00:15:46;;;;;;;18.58;8.65;;;;;;;;;;10077832;29;20057;-68
2022/05/11 00:20:48;;;;;;;16.10;8.10;;;;;;;;;;10076903;29;20080;-68
2022/05/11 00:25:52;;;;;;;15.82;7.68;;;;;;;;;;10101012;29;20056;-68
2022/05/11 00:30:54;;;;;;;13.15;7.97;;;;;;;;;;10079935;29;20087;-68
2022/05/11 00:35:56;;;;;;;18.77;8.23;;;;;;;;;;10105395;29;20076;-68
2022/05/11 00:41:01;;;;;;;14.73;8.43;;;;;;;;;;10076963;29;20057;-68
2022/05/11 00:46:12;;;;;;;20.48;8.25;;;;;;;;;;10075143;29;20080;-68
2022/05/11 00:51:15;;;;;;;20.48;8.82;;;;;;;;;;10088269;29;20061;-68
2022/05/11 00:56:19;;;;;;;13.52;8.30;;;;;;;;;;10094182;29;20060;-68
2022/05/11 01:01:22;;;;;;;15.10;8.43;;;;;;;;;;10084999;29;20087;-69
2022/05/11 01:06:25;;;;;;;13.85;8.80;;;;;;;;;;10075590;29;20372;-68
2022/05/11 02:28:50;;;;;;;17.52;10.95;;;;;;;;;;10089112;29;20061;-68
2022/05/11 02:33:52;;;;;;;19.08;11.57;;;;;;;;;;10081123;29;20086;-68
2022/05/11 02:38:55;;;;;;;16.40;11.25;;;;;;;;;;10114047;29;20053;-68
2022/05/11 02:43:59;;;;;;;18.88;11.55;;;;;;;;;;10119938;29;20056;-68
2022/05/11 02:49:01;;;;;;;18.70;10.45;;;;;;;;;;10079497;29;20050;-68
2022/05/11 02:54:03;;;;;;;18.38;11.00;;;;;;;;;;10085213;29;20060;-68
2022/05/11 02:59:07;;;;;;;19.10;11.77;;;;;;;;;;10082352;29;20046;-68
2022/05/11 03:04:09;;;;;;;21.38;11.77;;;;;;;;;;10078677;29;20094;-68
2022/05/11 03:09:12;;;;;;;21.23;12.45;;;;;;;;;;10079533;29;20076;-68
2022/05/11 03:14:15;;;;;;;18.40;11.35;;;;;;;;;;10081578;29;20058;-67
2022/05/11 03:19:18;;;;;;;25.17;12.48;;;;;;;;;;10117689;29;20045;-68
2022/05/11 03:24:20;;;;;;;20.52;11.60;;;;;;;;;;10118009;29;20305;-67
2022/05/11 03:29:24;;;;;;;22.13;11.73;;;;;;;;;;10114625;29;20097;-67
2022/05/11 03:34:38;;;;;;;22.53;12.03;;;;;;;;;;10077352;29;20073;-67
2022/05/11 03:39:41;;;;;;;19.50;11.70;;;;;;;;;;10083368;29;20056;-68
2022/05/11 03:44:45;;;;;;;16.92;11.70;;;;;;;;;;10078461;29;20061;-68
2022/05/11 03:49:47;;;;;;;16.83;12.17;;;;;;;;;;10094293;29;20233;-68
2022/05/11 03:54:49;;;;;;;22.73;11.57;;;;;;;;;;10078241;29;20305;-68
2022/05/11 03:59:53;;;;;;;21.25;11.65;;;;;;;;;;10080144;29;20276;-68
2022/05/11 04:04:55;;;;;;;17.75;11.10;;;;;;;;;;10092660;29;20136;-67
2022/05/11 04:09:57;;;;;;;22.73;12.60;;;;;;;;;;10083643;29;20428;-68
2022/05/11 04:15:01;;;;;;;20.20;11.57;;;;;;;;;;10085648;29;20045;-68
2022/05/11 04:20:05;;;;;;;20.88;11.55;;;;;;;;;;10087539;29;20105;-67
2022/05/11 04:25:10;;;;;;;24.60;12.00;;;;;;;;;;10086766;29;20080;-68
2022/05/11 04:30:17;;;;;;;19.08;12.07;;;;;;;;;;10080490;29;20053;-67
2022/05/11 04:35:19;;;;;;;20.73;11.60;;;;;;;;;;10077864;29;20098;-68
2022/05/11 04:40:21;;;;;;;24.10;11.65;;;;;;;;;;10077276;29;20049;-68
2022/05/11 04:45:25;;;;;;;15.77;11.20;;;;;;;;;;10077785;29;20245;-68
2022/05/11 04:50:27;;;;;;;17.52;11.13;;;;;;;;;;10076603;29;20341;-67
2022/05/11 04:55:30;;;;;;;19.55;10.98;;;;;;;;;;10076744;29;20046;-68
2022/05/11 05:00:34;;;;;;;13.82;10.75;;;;;;;;;;10075493;29;20274;-66
2022/05/11 05:05:37;;;;;;;19.98;11.70;;;;;;;;;;10076430;29;20057;-68
2022/05/11 05:10:39;;;;;;;17.52;11.35;;;;;;;;;;10076277;29;20045;-70
2022/05/11 05:15:43;;;;;;;19.60;11.45;;;;;;;;;;10102373;29;20049;-72
2022/05/11 05:20:46;;;;;;;19.35;12.25;;;;;;;;;;10114512;29;20073;-67
2022/05/11 05:25:48;;;;;;;18.77;13.20;;;;;;;;;;10114335;29;20064;-69
2022/05/11 05:31:11;;;;;;;22.48;12.93;;;;;;;;;;10105131;29;20311;-69
2022/05/11 05:36:13;;;;;;;18.27;10.52;;;;;;;;;;10121547;29;20273;-70
2022/05/11 05:41:15;;;;;;;19.63;11.57;;;;;;;;;;10114373;29;20108;-69
2022/05/11 05:46:19;;;;;;;26.95;13.18;;;;;;;;;;10114131;29;20068;-69
2022/05/11 05:51:23;;;;;;;20.88;10.60;;;;;;;;;;10090325;29;20081;-69
2022/05/11 05:56:26;;;;;;;17.63;10.45;;;;;;;;;;10075733;29;20117;-70
2022/05/11 06:01:29;;;;;;;22.33;9.77;;;;;;;;;;10080014;29;20068;-70
2022/05/11 06:06:32;;;;;;;22.77;9.32;;;;;;;;;;10124510;29;20044;-70
2022/05/11 06:11:34;;;;;;;15.40;8.40;;;;;;;;;;10121895;29;20080;-70
2022/05/11 06:16:38;;;;;;;13.43;8.38;;;;;;;;;;10119726;29;20073;-70
2022/05/11 06:21:40;;;;;;;14.75;8.45;;;;;;;;;;10101176;29;20102;-68
2022/05/11 06:26:43;;;;;;;15.90;8.97;;;;;;;;;;10082379;29;20088;-67
2022/05/11 06:31:48;;;;;;;13.68;8.85;;;;;;;;;;10083184;29;20049;-69
2022/05/11 06:36:50;;;;;;;14.93;8.55;;;;;;;;;;10101874;29;20060;-70
2022/05/11 06:41:53;;;;;;;12.52;7.65;;;;;;;;;;10081658;29;20282;-69
2022/05/11 06:46:57;;;;;;;;;;;;;;;;;;10085066;29;20049;-69
2022/05/11 06:52:00;;;;;;;21.20;9.35;;;;;;;;;;10106420;29;19979;-68
2022/05/11 07:02:39;;;;;;;15.07;8.55;;;;;;;;;;10026041;29;20276;-69
2022/05/11 07:07:41;;;;;;;15.60;8.35;;;;;;;;;;10011953;29;20082;-69
2022/05/11 07:12:47;;;;;;;14.45;7.80;;;;;;;;;;10000700;29;20069;-69
2022/05/11 07:17:52;;;;;;;23.30;7.22;;;;;;;;;;9990588;29;20072;-68
2022/05/11 07:22:55;;;;;;;12.77;7.18;;;;;;;;;;10019277;29;20288;-68
2022/05/11 07:27:59;;;;;;;12.63;5.22;;;;;;;;;;10000027;29;20295;-69
2022/05/11 07:33:04;;;;;;;8.40;4.43;;;;;;;;;;10052950;29;20066;-69
2022/05/11 07:38:08;;;;;;;10.55;4.30;;;;;;;;;;10107358;29;20053;-70
2022/05/11 07:43:11;;;;;;;10.82;4.22;;;;;;;;;;10118782;29;20049;-71
2022/05/11 07:48:15;;;;;;;11.23;4.60;;;;;;;;;;10116758;29;20056;-69
2022/05/11 07:53:17;;;;;;;8.18;5.80;;;;;;;;;;10096435;29;20113;-71
2022/05/11 08:03:40;;;;;;;9.30;8.73;;;;;;;;;;10090898;29;20358;-70
2022/05/11 08:08:42;;;;;;;1.90;1.90;;;;;;;;;;10086968;29;20057;-68
2022/05/11 08:13:45;;;;;;;1.10;1.10;;;;;;;;;;10078471;29;20245;-69
2022/05/11 08:18:48;;;;;;;2.92;2.83;;;;;;;;;;10089344;29;20378;-69
2022/05/11 08:23:51;;;;;;;8.50;8.20;;;;;;;;;;10116488;29;20104;-70
2022/05/11 08:28:54;;;;;;;17.65;16.83;;;;;;;;;;10126166;29;20048;-70
2022/05/11 08:33:57;;;;;;;27.15;25.75;;;;;;;;;;10080830;29;20048;-70
2022/05/11 08:39:01;;;;;;;37.22;35.13;;;;;;;;;;10113405;29;20105;-70
2022/05/11 08:44:06;;;;;;;37.70;35.60;;;;;;;;;;10088518;29;20347;-69
2022/05/11 08:49:17;;;;;;;43.42;40.92;;;;;;;;;;10077129;29;20397;-71
2022/05/11 08:54:25;;;;;;;46.10;43.40;;;;;;;;;;10110354;29;20053;-71
2022/05/11 08:59:30;;;;;;;37.65;35.55;;;;;;;;;;10084808;29;20069;-70
2022/05/11 09:04:51;;;;;;;29.85;28.25;;;;;;;;;;10078285;29;20089;-69
2022/05/11 09:09:55;;;;;;;28.40;26.90;;;;;;;;;;10076496;29;20053;-70
2022/05/11 09:15:00;;;;;;;12.30;11.80;;;;;;;;;;10076166;29;20058;-69
2022/05/11 09:20:09;;;;;;;4.40;4.30;;;;;;;;;;10088821;29;20052;-70
2022/05/11 09:25:21;;;;;;;0.90;0.90;;;;;;;;;;10112063;29;20083;-70
2022/05/11 09:30:26;;;;;;;0.10;0.10;;;;;;;;;;10094075;29;20107;-69
2022/05/11 09:35:36;;;;;;;7.17;2.90;;;;;;;;;;10074974;29;20052;-69
2022/05/11 09:40:56;;;;;;;9.38;2.75;;;;;;;;;;10090366;29;20356;-69
2022/05/11 09:45:58;;;;;;;3.30;2.78;;;;;;;;;;10087851;29;20049;-67
2022/05/11 09:51:20;;;;;;;5.60;3.10;;;;;;;;;;10087376;29;20278;-69
2022/05/11 09:56:29;;;;;;;11.75;3.60;;;;;;;;;;10113848;29;20052;-68
2022/05/11 10:01:31;;;;;;;13.30;4.38;;;;;;;;;;10080815;29;20069;-69
2022/05/11 10:06:43;;;;;;;8.55;4.20;;;;;;;;;;10075429;29;20048;-68
2022/05/11 10:11:50;;;;;;;10.48;5.53;;;;;;;;;;10126248;29;20080;-69
2022/05/11 10:22:35;;;;;;;9.45;5.60;;;;;;;;;;9980604;29;20066;-70
2022/05/11 10:27:44;;;;;;;9.82;5.22;;;;;;;;;;9958385;29;20308;-68
2022/05/11 10:33:08;;;;;;;6.88;5.18;;;;;;;;;;9956145;29;20301;-70
2022/05/11 10:38:24;;;;;;;5.95;4.57;;;;;;;;;;9956399;29;20089;-69
2022/05/11 10:43:44;;;;;;;8.50;4.30;;;;;;;;;;9957413;29;20054;-68
2022/05/11 10:48:58;;;;;;;74.20;11.82;;;;;;;;;;9963206;29;20055;-68
2022/05/11 10:54:10;;;;;;;13.70;5.07;;;;;;;;;;10002143;29;20065;-72
2022/05/11 10:59:36;;;;;;;8.02;4.28;;;;;;;;;;10081731;29;20072;-68
2022/05/11 11:04:56;;;;;;;8.63;4.60;;;;;;;;;;10094413;29;20279;-68
2022/05/11 11:10:13;;;;;;;5.40;4.40;;;;;;;;;;10117089;29;20067;-70
2022/05/11 11:15:19;;;;;;;6.30;4.50;;;;;;;;;;10112724;29;20057;-68
2022/05/11 11:20:23;;;;;;;8.35;4.07;;;;;;;;;;10117277;29;20350;-68
2022/05/11 11:25:27;;;;;;;10.48;4.50;;;;;;;;;;10080470;29;20069;-68
2022/05/11 11:30:30;;;;;;;8.90;4.63;;;;;;;;;;10094767;29;20083;-69
2022/05/11 11:35:39;;;;;;;9.48;4.65;;;;;;;;;;10103811;29;20194;-68
2022/05/11 11:40:42;;;;;;;8.75;4.95;;;;;;;;;;10080550;29;20061;-68
2022/05/11 11:46:04;;;;;;;9.32;4.57;;;;;;;;;;10081275;29;20049;-68
2022/05/11 11:51:12;;;;;;;7.38;4.80;;;;;;;;;;10093472;29;20069;-70
2022/05/11 11:56:40;;;;;;;9.93;4.38;;;;;;;;;;10092579;29;20070;-69
2022/05/11 12:01:45;;;;;;;14.38;5.13;;;;;;;;;;10115520;29;20065;-69
2022/05/11 12:17:36;;;;;;;11.60;5.35;;;;;;;;;;10130337;29;20060;-69
2022/05/11 12:22:43;;;;;;;17.80;5.32;;;;;;;;;;10128921;29;20080;-69
2022/05/11 12:27:48;;;;;;;8.63;5.13;;;;;;;;;;10115936;29;20064;-68
2022/05/11 12:32:53;;;;;;;11.82;5.90;;;;;;;;;;10093797;29;20060;-68
2022/05/11 12:37:59;;;;;;;7.53;5.07;;;;;;;;;;10090936;29;20383;-69
2022/05/11 12:43:09;;;;;;;10.40;5.43;;;;;;;;;;10098570;29;20056;-67
2022/05/11 12:48:18;;;;;;;19.35;7.13;;;;;;;;;;10129319;29;20060;-69
2022/05/11 12:53:25;;;;;;;10.63;8.68;;;;;;;;;;10081937;29;20173;-69
2022/05/11 12:58:30;;;;;;;12.25;7.15;;;;;;;;;;10098244;29;20093;-70
2022/05/11 13:03:36;;;;;;;7.72;5.82;;;;;;;;;;10077921;29;20093;-67
2022/05/11 13:08:46;;;;;;;11.75;6.15;;;;;;;;;;10076216;29;20388;-68
2022/05/11 13:13:54;;;;;;;22.02;6.43;;;;;;;;;;10093153;29;20398;-69
2022/05/11 13:19:06;;;;;;;10.07;6.40;;;;;;;;;;10089725;29;20049;-71
2022/05/11 13:24:09;;;;;;;16.50;13.10;;;;;;;;;;10080287;29;20053;-72
2022/05/11 13:29:17;;;;;;;9.02;7.30;;;;;;;;;;10118697;29;20249;-73
2022/05/11 13:34:32;;;;;;;17.08;10.38;;;;;;;;;;10089953;29;20240;-71
2022/05/11 13:39:37;;;;;;;20.80;16.08;;;;;;;;;;10095118;29;20244;-72
2022/05/11 13:44:48;;;;;;;14.27;8.82;;;;;;;;;;10078457;29;20057;-72
2022/05/11 13:49:50;;;;;;;14.07;5.30;;;;;;;;;;10089978;29;20053;-71
2022/05/11 13:54:55;;;;;;;7.10;4.95;;;;;;;;;;10071327;29;20076;-72
2022/05/11 14:00:11;;;;;;;10.45;5.38;;;;;;;;;;10075530;29;20101;-71
2022/05/11 14:05:14;;;;;;;6.78;5.32;;;;;;;;;;10099260;29;20165;-71
2022/05/11 14:10:17;;;;;;;11.55;5.10;;;;;;;;;;10081766;29;20049;-71
2022/05/11 14:15:20;;;;;;;12.88;5.30;;;;;;;;;;10074738;29;20071;-74
2022/05/11 14:20:26;;;;;;;7.60;4.57;;;;;;;;;;10077823;29;20054;-70
2022/05/11 14:25:29;;;;;;;11.30;4.82;;;;;;;;;;10084501;29;20049;-73
2022/05/11 14:30:34;;;;;;;11.05;5.10;;;;;;;;;;10121287;29;20379;-70
2022/05/11 14:35:36;;;;;;;8.57;5.00;;;;;;;;;;10120105;29;20045;-72
2022/05/11 14:40:39;;;;;;;5.77;5.13;;;;;;;;;;10119541;29;20057;-72
2022/05/11 14:45:43;;;;;;;;;;;;;;;;;;10118587;29;20060;-71
2022/05/11 14:50:45;;;;;;;5.47;4.90;;;;;;;;;;10112235;29;20339;-72
2022/05/11 14:55:47;;;;;;;10.13;5.00;;;;;;;;;;10121557;29;20252;-73
2022/05/11 15:06:12;;;;;;;15.50;5.30;;;;;;;;;;10087579;29;20064;-70
2022/05/11 15:16:36;;;;;;;9.45;4.88;;;;;;;;;;10085749;29;20050;-70
2022/05/11 15:21:39;;;;;;;14.98;7.78;;;;;;;;;;10082034;29;20053;-75
2022/05/11 15:26:42;;;;;;;17.63;8.32;;;;;;;;;;10093575;29;20064;-70
2022/05/11 15:31:47;;;;;;;13.48;7.97;;;;;;;;;;10118937;29;20061;-70
2022/05/11 15:36:50;;;;;;;16.33;6.90;;;;;;;;;;10102524;29;20052;-71
2022/05/11 15:41:52;;;;;;;14.90;6.63;;;;;;;;;;10107280;29;20045;-71
2022/05/11 15:46:56;;;;;;;11.80;5.80;;;;;;;;;;10107528;29;20051;-70
2022/05/11 15:51:58;;;;;;;31.00;6.15;;;;;;;;;;10117948;29;20404;-68
2022/05/11 15:57:00;;;;;;;9.18;5.10;;;;;;;;;;10117670;29;20044;-69
2022/05/11 16:02:06;;;;;;;13.15;4.75;;;;;;;;;;10117544;29;20057;-69
2022/05/11 16:07:10;;;;;;;7.53;4.95;;;;;;;;;;10117736;29;20297;-71
2022/05/11 16:12:16;;;;;;;13.32;5.47;;;;;;;;;;10115416;29;20060;-69
2022/05/11 16:22:40;;;;;;;8.55;4.95;;;;;;;;;;10053788;29;20053;-69
2022/05/11 16:27:43;;;;;;;8.38;5.38;;;;;;;;;;10044156;29;20361;-70
2022/05/11 16:32:48;;;;;;;9.05;4.57;;;;;;;;;;10115492;29;20352;-70
2022/05/11 16:37:50;;;;;;;7.63;4.60;;;;;;;;;;10116363;29;20139;-70
2022/05/11 16:42:52;;;;;;;6.25;4.43;;;;;;;;;;10081475;29;20248;-69
2022/05/11 16:47:56;;;;;;;8.82;4.88;;;;;;;;;;10117066;29;20045;-72
2022/05/11 16:52:59;;;;;;;11.73;4.40;;;;;;;;;;10096002;29;20052;-67
2022/05/11 16:58:02;;;;;;;8.15;4.72;;;;;;;;;;10076154;29;20054;-68
2022/05/11 17:03:08;;;;;;;6.75;4.22;;;;;;;;;;10077179;29;20057;-69
2022/05/11 17:08:11;;;;;;;6.55;4.25;;;;;;;;;;10102777;29;20052;-68
2022/05/11 17:13:13;;;;;;;11.45;4.50;;;;;;;;;;10115004;29;20079;-70
2022/05/11 17:18:17;;;;;;;7.28;4.68;;;;;;;;;;10097720;29;20109;-68
2022/05/11 17:23:20;;;;;;;;;;;;;;;;;;10071671;29;20080;-69
2022/05/11 17:28:22;;;;;;;7.05;5.10;;;;;;;;;;10109798;29;19920;-65
2022/05/11 17:33:26;;;;;;;10.82;5.82;;;;;;;;;;10114937;29;20053;-66
2022/05/11 17:38:28;;;;;;;;;;;;;;;;;;10085895;29;20057;-67
2022/05/11 17:43:31;;;;;;;13.18;5.47;;;;;;;;;;10086942;29;19944;-68
2022/05/11 17:48:35;;;;;;;11.30;5.90;;;;;;;;;;10075590;29;20053;-67
2022/05/11 17:53:37;;;;;;;17.40;7.60;;;;;;;;;;10074854;29;20226;-66
2022/05/11 17:58:40;;;;;;;16.92;8.10;;;;;;;;;;10089953;29;20079;-68
2022/05/11 18:03:44;;;;;;;16.15;7.85;;;;;;;;;;10127621;29;20048;-68
2022/05/11 18:08:46;;;;;;;12.27;7.00;;;;;;;;;;10127734;29;20060;-67
2022/05/11 18:13:50;;;;;;;17.95;6.93;;;;;;;;;;10118315;29;20041;-67
2022/05/11 18:18:54;;;;;;;12.30;7.40;;;;;;;;;;10087408;29;20137;-66
2022/05/11 18:23:59;;;;;;;13.55;7.28;;;;;;;;;;10084881;29;20407;-67
2022/05/11 18:29:01;;;;;;;10.60;7.30;;;;;;;;;;10116255;29;20065;-67
2022/05/11 18:34:09;;;;;;;14.93;7.57;;;;;;;;;;10088896;29;20140;-67
2022/05/11 18:39:12;;;;;;;19.25;7.53;;;;;;;;;;10103093;29;20077;-68
2022/05/11 18:44:14;;;;;;;10.70;7.80;;;;;;;;;;10112444;29;20065;-66
2022/05/11 18:49:18;;;;;;;11.98;7.45;;;;;;;;;;10088151;29;20084;-67
2022/05/11 18:54:21;;;;;;;9.25;7.60;;;;;;;;;;10093567;29;20108;-68
2022/05/11 18:59:23;;;;;;;13.52;7.68;;;;;;;;;;10116063;29;20051;-67
2022/05/11 19:04:27;;;;;;;17.67;7.57;;;;;;;;;;10126317;29;20109;-69
2022/05/11 19:09:30;;;;;;;14.07;8.50;;;;;;;;;;10103374;29;20053;-72
2022/05/11 19:14:32;;;;;;;13.98;7.47;;;;;;;;;;10096841;29;20053;-69
2022/05/11 19:19:36;;;;;;;16.58;8.43;;;;;;;;;;10118028;29;20057;-66
2022/05/11 19:24:40;;;;;;;13.13;7.88;;;;;;;;;;10118341;29;20347;-67
2022/05/11 19:29:42;;;;;;;11.50;7.33;;;;;;;;;;10106757;29;20094;-67
2022/05/11 19:34:46;;;;;;;15.50;8.90;;;;;;;;;;10089747;29;20045;-67
2022/05/11 19:39:48;;;;;;;10.17;8.70;;;;;;;;;;10119799;29;20047;-67
2022/05/11 19:44:50;;;;;;;15.45;9.02;;;;;;;;;;10120303;29;20356;-68
2022/05/11 19:49:54;;;;;;;10.80;8.25;;;;;;;;;;10108902;29;20067;-69
2022/05/11 19:54:56;;;;;;;17.20;8.33;;;;;;;;;;10106919;29;20115;-70
2022/05/11 19:59:59;;;;;;;20.38;9.02;;;;;;;;;;10081277;29;20427;-69
2022/05/11 20:05:04;;;;;;;14.95;8.82;;;;;;;;;;10079671;29;20057;-68
2022/05/11 20:10:07;;;;;;;12.23;9.13;;;;;;;;;;10074698;29;20352;-65
2022/05/11 20:15:11;;;;;;;16.10;8.80;;;;;;;;;;10087335;29;20054;-68
2022/05/11 20:20:14;;;;;;;14.07;8.80;;;;;;;;;;10078626;29;20049;-68
2022/05/11 20:25:18;;;;;;;14.00;9.23;;;;;;;;;;10083689;29;20266;-68
2022/05/11 20:30:22;;;;;;;13.65;10.07;;;;;;;;;;10103843;29;20057;-68
2022/05/11 20:35:26;;;;;;;16.55;9.18;;;;;;;;;;10076350;29;20045;-68
2022/05/11 20:40:36;;;;;;;19.88;9.15;;;;;;;;;;10080616;29;20077;-68
2022/05/11 20:45:38;;;;;;;12.18;9.65;;;;;;;;;;10078125;29;20042;-66
2022/05/11 20:50:45;;;;;;;14.82;9.38;;;;;;;;;;10108589;29;20072;-68
2022/05/11 20:55:47;;;;;;;14.38;9.40;;;;;;;;;;10129937;29;20068;-68
2022/05/11 21:00:50;;;;;;;15.82;9.63;;;;;;;;;;10098433;29;20050;-68
2022/05/11 21:05:54;;;;;;;14.32;9.32;;;;;;;;;;10076490;29;20041;-68
2022/05/11 21:10:56;;;;;;;13.55;9.73;;;;;;;;;;10113121;29;20092;-66
2022/05/11 21:15:59;;;;;;;16.00;9.98;;;;;;;;;;10115370;29;20319;-68
2022/05/11 21:21:03;;;;;;;12.55;10.00;;;;;;;;;;10092148;29;20065;-68
2022/05/11 21:26:05;;;;;;;15.77;9.87;;;;;;;;;;10082523;29;20080;-67
2022/05/11 21:31:08;;;;;;;21.23;10.10;;;;;;;;;;10106931;29;20073;-67
2022/05/11 21:36:11;;;;;;;19.38;11.93;;;;;;;;;;10075809;29;20053;-67
2022/05/11 21:41:14;;;;;;;13.60;10.50;;;;;;;;;;10093056;29;20099;-68
2022/05/11 21:46:16;;;;;;;11.70;10.40;;;;;;;;;;10112260;29;20055;-68
2022/05/11 21:51:20;;;;;;;16.13;10.30;;;;;;;;;;10087879;29;20379;-66
2022/05/11 21:56:22;;;;;;;;;;;;;;;;;;10075973;29;20045;-68
2022/05/11 22:01:28;;;;;;;12.02;9.98;;;;;;;;;;10083531;29;19927;-67
2022/05/11 22:06:32;;;;;;;19.20;10.98;;;;;;;;;;10126607;29;20072;-66
2022/05/11 22:11:36;;;;;;;;;;;;;;;;;;10083097;29;20113;-66
2022/05/11 22:16:39;;;;;;;11.45;10.23;;;;;;;;;;10093849;29;20239;-68
2022/05/11 22:21:44;;;;;;;17.38;10.73;;;;;;;;;;10081031;29;20073;-65
2022/05/11 22:26:49;;;;;;;14.25;11.02;;;;;;;;;;10075509;29;20271;-66
2022/05/11 22:31:52;;;;;;;19.38;10.80;;;;;;;;;;10091791;29;20080;-66
2022/05/11 22:36:56;;;;;;;13.75;10.32;;;;;;;;;;10102946;29;20053;-67
2022/05/11 22:41:59;;;;;;;12.53;10.23;;;;;;;;;;10092274;29;20089;-66
2022/05/11 22:47:01;;;;;;;14.15;10.23;;;;;;;;;;10078971;29;20080;-67
2022/05/11 22:52:05;;;;;;;16.27;10.20;;;;;;;;;;10113107;29;20115;-66
2022/05/11 22:57:07;;;;;;;10.63;9.52;;;;;;;;;;10105626;29;20152;-66
2022/05/11 23:02:10;;;;;;;14.88;10.30;;;;;;;;;;10086086;29;20498;-68
2022/05/11 23:07:14;;;;;;;11.35;10.18;;;;;;;;;;10080113;29;20316;-68
2022/05/11 23:12:16;;;;;;;12.13;10.25;;;;;;;;;;10102502;29;20352;-68
2022/05/11 23:17:19;;;;;;;13.02;10.75;;;;;;;;;;10079612;29;20068;-68
2022/05/11 23:22:23;;;;;;;11.27;9.48;;;;;;;;;;10078788;29;20049;-67
2022/05/11 23:27:25;;;;;;;11.57;9.77;;;;;;;;;;10094309;29;20065;-67
2022/05/11 23:32:27;;;;;;;12.90;9.85;;;;;;;;;;10078835;29;20061;-67
2022/05/11 23:37:32;;;;;;;14.75;10.13;;;;;;;;;;10077541;29;20045;-67
2022/05/11 23:42:34;;;;;;;;;;;;;;;;;;10109421;29;20069;-67
2022/05/11 23:47:36;;;;;;;12.00;9.73;;;;;;;;;;10079351;29;19947;-67
2022/05/11 23:52:41;;;;;;;18.13;10.43;;;;;;;;;;10078960;29;20108;-68
2022/05/11 23:57:44;;;;;;;11.60;10.40;;;;;;;;;;10084512;29;20049;-67
